Time,TemperatureF,DewpointF,PressureIn,WindDirection,WindDirectionDegrees,WindSpeedMPH,WindSpeedGustMPH,Humidity,HourlyPrecipIn,Conditions,Clouds,dailyrainin,SoftwareType,DateUTC
2013-07-06 00:04:00,73.0,71.2,29.99,West,270,2.2,-999.0,94,-99.99,,,0.00,Acu-Link.com,2013-07-06 04:04:00,
2013-07-06 00:19:00,72.7,71.2,30.01,West,270,0.0,-999.0,95,-99.99,,,0.00,Acu-Link.com,2013-07-06 04:19:00,
2013-07-06 00:34:00,72.7,70.9,30.00,WNW,292,3.7,-999.0,94,-99.99,,,0.00,Acu-Link.com,2013-07-06 04:34:00,
2013-07-06 00:49:00,72.7,70.9,30.00,West,270,0.0,-999.0,94,-99.99,,,0.00,Acu-Link.com,2013-07-06 04:49:00,
2013-07-06 01:04:00,72.5,70.7,30.00,West,270,0.0,-999.0,94,-99.99,,,0.00,Acu-Link.com,2013-07-06 05:04:00,
2013-07-06 01:20:00,72.5,70.7,30.00,West,270,0.0,-999.0,94,-99.99,,,0.00,Acu-Link.com,2013-07-06 05:20:00,
2013-07-06 01:35:00,72.1,70.6,30.01,West,270,1.1,-999.0,95,-99.99,,,0.00,Acu-Link.com,2013-07-06 05:35:00,
2013-07-06 01:50:00,72.1,70.6,30.01,West,270,0.0,-999.0,95,-99.99,,,0.00,Acu-Link.com,2013-07-06 05:50:00,
2013-07-06 02:05:00,72.1,70.6,30.01,WNW,292,1.7,-999.0,95,-99.99,,,0.00,Acu-Link.com,2013-07-06 06:05:00,
2013-07-06 02:20:00,72.1,70.6,30.02,West,270,2.2,-999.0,95,-99.99,,,0.00,Acu-Link.com,2013-07-06 06:20:00,
2013-07-06 02:35:00,72.1,70.3,30.03,North,0,2.2,-999.0,94,-99.99,,,0.00,Acu-Link.com,2013-07-06 06:35:00,
2013-07-06 02:50:00,72.1,70.3,30.02,NNW,337,0.0,-999.0,94,-99.99,,,0.00,Acu-Link.com,2013-07-06 06:50:00,
2013-07-06 03:05:00,72.0,70.2,30.01,WNW,292,0.0,-999.0,94,-99.99,,,0.00,Acu-Link.com,2013-07-06 07:05:00,
2013-07-06 03:20:00,72.0,70.2,30.02,WNW,292,0.0,-999.0,94,-99.99,,,0.00,Acu-Link.com,2013-07-06 07:20:00,
2013-07-06 03:36:00,71.8,70.3,30.01,West,270,0.0,-999.0,95,-99.99,,,0.00,Acu-Link.com,2013-07-06 07:36:00,
2013-07-06 03:51:00,71.6,69.5,30.01,SSE,157,0.0,-999.0,93,-99.99,,,0.00,Acu-Link.com,2013-07-06 07:51:00,
2013-07-06 04:06:00,71.1,69.0,30.02,West,270,3.7,-999.0,93,-99.99,,,0.00,Acu-Link.com,2013-07-06 08:06:00,
2013-07-06 04:21:00,71.2,69.1,30.01,West,270,0.0,-999.0,93,-99.99,,,0.00,Acu-Link.com,2013-07-06 08:21:00,
2013-07-06 04:36:00,71.2,69.1,30.01,WNW,292,1.1,-999.0,93,-99.99,,,0.00,Acu-Link.com,2013-07-06 08:36:00,
2013-07-06 04:52:00,71.2,69.1,30.02,WNW,292,0.0,-999.0,93,-99.99,,,0.00,Acu-Link.com,2013-07-06 08:52:00,
2013-07-06 05:07:00,70.9,69.1,30.01,West,270,3.7,-999.0,94,-99.99,,,0.00,Acu-Link.com,2013-07-06 09:07:00,
2013-07-06 05:22:00,70.9,69.4,30.01,NNW,337,0.0,-999.0,95,-99.99,,,0.00,Acu-Link.com,2013-07-06 09:22:00,
2013-07-06 05:37:00,70.5,69.0,30.03,SW,225,1.7,-999.0,95,-99.99,,,0.00,Acu-Link.com,2013-07-06 09:37:00,
2013-07-06 05:52:00,70.3,68.8,30.03,North,0,1.7,-999.0,95,-99.99,,,0.00,Acu-Link.com,2013-07-06 09:52:00,
2013-07-06 06:07:00,70.2,68.7,30.04,WNW,292,2.7,-999.0,95,-99.99,,,0.00,Acu-Link.com,2013-07-06 10:07:00,
2013-07-06 06:22:00,70.3,68.8,30.04,WSW,247,2.7,-999.0,95,-99.99,,,0.00,Acu-Link.com,2013-07-06 10:22:00,
2013-07-06 06:37:00,70.3,68.5,30.04,West,270,0.0,-999.0,94,-99.99,,,0.00,Acu-Link.com,2013-07-06 10:37:00,
2013-07-06 06:53:00,70.7,68.9,30.05,NNW,337,1.1,-999.0,94,-99.99,,,0.00,Acu-Link.com,2013-07-06 10:53:00,
2013-07-06 07:08:00,71.2,69.1,30.04,NNW,337,0.0,-999.0,93,-99.99,,,0.00,Acu-Link.com,2013-07-06 11:08:00,
2013-07-06 07:23:00,72.0,69.5,30.04,West,270,1.7,-999.0,92,-99.99,,,0.00,Acu-Link.com,2013-07-06 11:23:00,
2013-07-06 07:38:00,71.8,69.3,30.05,West,270,1.7,-999.0,92,-99.99,,,0.00,Acu-Link.com,2013-07-06 11:38:00,
2013-07-06 07:53:00,72.1,69.3,30.06,WSW,247,1.7,-999.0,91,-99.99,,,0.00,Acu-Link.com,2013-07-06 11:53:00,
2013-07-06 08:08:00,72.9,70.1,30.05,West,270,2.2,-999.0,91,-99.99,,,0.00,Acu-Link.com,2013-07-06 12:08:00,
2013-07-06 08:23:00,73.0,69.9,30.05,WNW,292,4.2,-999.0,90,-99.99,,,0.00,Acu-Link.com,2013-07-06 12:23:00,
2013-07-06 08:38:00,73.2,69.8,30.05,West,270,3.2,-999.0,89,-99.99,,,0.00,Acu-Link.com,2013-07-06 12:38:00,
2013-07-06 08:53:00,74.7,70.9,30.05,SSE,157,0.0,-999.0,88,-99.99,,,0.00,Acu-Link.com,2013-07-06 12:53:00,
2013-07-06 09:09:00,76.1,71.3,30.05,ESE,112,1.1,-999.0,85,-99.99,,,0.00,Acu-Link.com,2013-07-06 13:09:00,
2013-07-06 09:24:00,76.6,71.4,30.05,South,180,0.0,-999.0,84,-99.99,,,0.00,Acu-Link.com,2013-07-06 13:24:00,
2013-07-06 09:39:00,77.5,71.2,30.04,South,180,0.0,-999.0,81,-99.99,,,0.00,Acu-Link.com,2013-07-06 13:39:00,
2013-07-06 09:54:00,78.8,71.7,30.05,SE,135,1.7,-999.0,79,-99.99,,,0.00,Acu-Link.com,2013-07-06 13:54:00,
2013-07-06 10:09:00,80.1,71.4,30.04,SSW,202,1.7,-999.0,75,-99.99,,,0.00,Acu-Link.com,2013-07-06 14:09:00,
2013-07-06 10:24:00,81.3,71.8,30.04,ESE,112,2.7,-999.0,73,-99.99,,,0.00,Acu-Link.com,2013-07-06 14:24:00,
2013-07-06 10:40:00,82.2,71.0,30.03,NW,315,1.7,-999.0,69,-99.99,,,0.00,Acu-Link.com,2013-07-06 14:40:00,
2013-07-06 10:55:00,83.3,71.6,30.03,West,270,2.2,-999.0,68,-99.99,,,0.00,Acu-Link.com,2013-07-06 14:55:00,
2013-07-06 11:10:00,84.6,71.5,30.03,SE,135,2.7,-999.0,65,-99.99,,,0.00,Acu-Link.com,2013-07-06 15:10:00,
2013-07-06 11:25:00,84.6,71.5,30.03,SE,135,0.0,-999.0,65,-99.99,,,0.00,Acu-Link.com,2013-07-06 15:25:00,
2013-07-06 11:40:00,84.4,71.3,30.02,ESE,112,1.7,-999.0,65,-99.99,,,0.00,Acu-Link.com,2013-07-06 15:40:00,
2013-07-06 11:55:00,83.7,70.7,30.03,ENE,67,1.7,-999.0,65,-99.99,,,0.00,Acu-Link.com,2013-07-06 15:55:00,
2013-07-06 12:10:00,86.0,71.4,30.03,ESE,112,1.7,-999.0,62,-99.99,,,0.00,Acu-Link.com,2013-07-06 16:10:00,
2013-07-06 12:25:00,87.8,71.7,30.01,WSW,247,4.2,-999.0,59,-99.99,,,0.00,Acu-Link.com,2013-07-06 16:25:00,
2013-07-06 12:40:00,88.5,70.8,30.01,SSE,157,2.2,-999.0,56,-99.99,,,0.00,Acu-Link.com,2013-07-06 16:40:00,
2013-07-06 12:55:00,88.5,70.8,30.00,ESE,112,1.1,-999.0,56,-99.99,,,0.00,Acu-Link.com,2013-07-06 16:55:00,
2013-07-06 13:11:00,89.4,71.1,30.01,SSE,157,3.2,-999.0,55,-99.99,,,0.00,Acu-Link.com,2013-07-06 17:11:00,
2013-07-06 13:26:00,89.6,70.2,29.99,ENE,67,1.7,-999.0,53,-99.99,,,0.00,Acu-Link.com,2013-07-06 17:26:00,
2013-07-06 13:41:00,89.8,70.9,29.98,SW,225,2.2,-999.0,54,-99.99,,,0.00,Acu-Link.com,2013-07-06 17:41:00,
2013-07-06 14:26:00,91.4,71.3,29.96,ESE,112,2.7,-999.0,52,-99.99,,,0.00,Acu-Link.com,2013-07-06 18:26:00,
2013-07-06 14:57:00,91.6,72.0,29.96,East,90,1.7,-999.0,53,-99.99,,,0.00,Acu-Link.com,2013-07-06 18:57:00,
2013-07-06 15:28:00,92.7,71.3,29.95,South,180,3.2,-999.0,50,-99.99,,,0.00,Acu-Link.com,2013-07-06 19:28:00,
2013-07-06 15:43:00,91.6,70.3,29.94,SSE,157,1.7,-999.0,50,-99.99,,,0.00,Acu-Link.com,2013-07-06 19:43:00,
2013-07-06 15:58:00,92.5,71.7,29.94,NW,315,2.2,-999.0,51,-99.99,,,0.00,Acu-Link.com,2013-07-06 19:58:00,
2013-07-06 16:13:00,96.8,71.9,29.93,WNW,292,1.7,-999.0,45,-99.99,,,0.00,Acu-Link.com,2013-07-06 20:13:00,
2013-07-06 16:58:00,95.5,70.7,29.91,WNW,292,2.7,-999.0,45,-99.99,,,0.00,Acu-Link.com,2013-07-06 20:58:00,
2013-07-06 17:13:00,95.7,70.9,29.90,SSE,157,2.2,-999.0,45,-99.99,,,0.00,Acu-Link.com,2013-07-06 21:13:00,
2013-07-06 17:28:00,93.9,70.6,29.90,ESE,112,1.7,-999.0,47,-99.99,,,0.00,Acu-Link.com,2013-07-06 21:28:00,
2013-07-06 17:44:00,93.6,70.3,29.91,SW,225,1.7,-999.0,47,-99.99,,,0.00,Acu-Link.com,2013-07-06 21:44:00,
2013-07-06 17:59:00,95.2,70.5,29.89,SE,135,2.2,-999.0,45,-99.99,,,0.00,Acu-Link.com,2013-07-06 21:59:00,
2013-07-06 18:44:00,93.2,70.5,29.90,ESE,112,1.7,-999.0,48,-99.99,,,0.00,Acu-Link.com,2013-07-06 22:44:00,
2013-07-06 18:59:00,95.4,71.3,29.89,SSW,202,2.7,-999.0,46,-99.99,,,0.00,Acu-Link.com,2013-07-06 22:59:00,
2013-07-06 19:14:00,93.6,70.9,29.90,South,180,1.1,-999.0,48,-99.99,,,0.00,Acu-Link.com,2013-07-06 23:14:00,
2013-07-06 19:30:00,90.5,70.4,29.89,ESE,112,0.0,-999.0,52,-99.99,,,0.00,Acu-Link.com,2013-07-06 23:30:00,
2013-07-06 19:45:00,89.2,70.9,29.89,ESE,112,0.0,-999.0,55,-99.99,,,0.00,Acu-Link.com,2013-07-06 23:45:00,
2013-07-06 20:15:00,86.9,72.8,29.90,West,270,1.1,-999.0,63,-99.99,,,0.00,Acu-Link.com,2013-07-07 00:15:00,
2013-07-06 20:30:00,85.1,72.9,29.91,ENE,67,0.0,-999.0,67,-99.99,,,0.00,Acu-Link.com,2013-07-07 00:30:00,
2013-07-06 21:00:00,81.7,71.8,29.90,WNW,292,0.0,-999.0,72,-99.99,,,0.00,Acu-Link.com,2013-07-07 01:00:00,
2013-07-06 21:15:00,80.1,71.8,29.91,NW,315,1.7,-999.0,76,-99.99,,,0.00,Acu-Link.com,2013-07-07 01:15:00,
2013-07-06 21:30:00,79.9,72.0,29.92,East,90,0.0,-999.0,77,-99.99,,,0.00,Acu-Link.com,2013-07-07 01:30:00,
2013-07-06 21:46:00,79.7,71.4,29.92,SSW,202,0.0,-999.0,76,-99.99,,,0.00,Acu-Link.com,2013-07-07 01:46:00,
2013-07-06 23:16:00,77.0,71.1,29.94,WNW,292,0.0,-999.0,82,-99.99,,,0.00,Acu-Link.com,2013-07-07 03:16:00,
2013-07-06 23:31:00,76.6,71.0,29.94,NNE,22,0.0,-999.0,83,-99.99,,,0.00,Acu-Link.com,2013-07-07 03:31:00,
2013-07-06 23:46:00,76.1,70.9,29.93,WSW,247,1.1,-999.0,84,-99.99,,,0.00,Acu-Link.com,2013-07-07 03:46:00,